KESF 031350Z AUTO 00000KT 7SM FEW006 02/01 A3047 RMK AO2
From batch tds/metars/production/2023/2/3/h13_m55_metars.cache.csv.gz
Observed at (about 19 hours ago)
Identifier KESF
talk